Time;durP1;ratioP1;P1;durP2;ratioP2;P2;SDS_P1;SDS_P2;PMS_P1;PMS_P2;Temp;Humidity;BMP_temperature;BMP_pressure;BME280_temperature;BME280_humidity;BME280_pressure;Samples;Min_cycle;Max_cycle;Signal;HPM_P1;HPM_P2
2023/12/27 00:01:53;;;;;;;16.20;2.93;;;5.40;99.90;;;4.42;100.00;101329.78;5036870;28;20231;-70
2023/12/27 00:04:21;;;;;;;10.83;2.50;;;5.40;99.90;;;4.42;100.00;101336.88;5037010;28;20291;-70
2023/12/27 00:06:52;;;;;;;7.70;2.87;;;5.40;99.90;;;4.37;100.00;101341.66;5036745;28;20222;-70
2023/12/27 00:09:20;;;;;;;11.07;2.87;;;5.30;99.90;;;4.39;100.00;101343.25;5037088;28;20226;-70
2023/12/27 00:11:48;;;;;;;10.13;2.43;;;5.30;99.90;;;4.38;100.00;101333.63;5036658;28;20207;-70
2023/12/27 00:14:17;;;;;;;9.77;2.40;;;5.30;99.90;;;4.34;100.00;101337.44;5036640;28;20317;-70
2023/12/27 00:16:45;;;;;;;10.33;2.20;;;5.30;99.90;;;4.30;100.00;101341.25;5036612;28;20280;-70
2023/12/27 00:19:14;;;;;;;9.17;2.43;;;5.30;99.90;;;4.29;100.00;101339.53;5036184;28;20313;-70
2023/12/27 00:21:42;;;;;;;9.87;2.53;;;5.20;99.90;;;4.28;100.00;101348.44;5036469;28;20210;-70
2023/12/27 00:24:11;;;;;;;12.87;2.77;;;5.20;99.90;;;4.27;100.00;101341.47;5036383;28;20616;-70
2023/12/27 00:26:39;;;;;;;11.47;2.30;;;5.20;99.90;;;4.23;100.00;101339.97;5036293;28;20237;-70
2023/12/27 00:29:07;;;;;;;9.70;2.20;;;5.10;99.90;;;4.21;100.00;101341.88;5036365;28;20276;-70
2023/12/27 00:31:35;;;;;;;14.73;2.47;;;5.20;99.90;;;4.20;100.00;101339.31;5036262;28;20333;-70
2023/12/27 00:34:03;;;;;;;12.67;2.47;;;5.10;99.90;;;4.15;100.00;101344.06;5036102;28;20284;-70
2023/12/27 00:36:33;;;;;;;13.80;2.90;;;5.10;99.90;;;4.15;100.00;101342.28;5036150;28;20293;-70
2023/12/27 00:39:03;;;;;;;11.33;3.73;;;5.20;99.90;;;4.20;100.00;101361.38;5036089;28;20281;-70
2023/12/27 00:41:32;;;;;;;12.77;2.43;;;5.20;99.90;;;4.17;100.00;101347.50;5036129;28;20272;-70
2023/12/27 00:44:00;;;;;;;17.57;2.90;;;5.10;99.90;;;4.15;100.00;101352.03;5036040;28;20217;-70
2023/12/27 00:46:28;;;;;;;10.27;2.70;;;5.10;99.90;;;4.06;100.00;101358.81;5035659;28;20261;-70
2023/12/27 00:48:56;;;;;;;12.83;2.77;;;5.00;99.90;;;4.11;100.00;101356.69;5035785;28;20226;-70
2023/12/27 00:51:24;;;;;;;8.90;2.30;;;5.10;99.90;;;4.09;100.00;101359.47;5035725;28;20210;-70
2023/12/27 00:53:54;;;;;;;11.47;2.10;;;5.10;99.90;;;4.09;100.00;101366.56;5035733;28;20227;-70
2023/12/27 00:56:22;;;;;;;11.80;2.30;;;5.10;99.90;;;4.07;100.00;101365.81;5035814;28;20230;-70
2023/12/27 00:58:51;;;;;;;13.43;2.60;;;5.00;99.90;;;4.08;100.00;101376.31;5035637;28;20231;-70
2023/12/27 01:01:20;;;;;;;15.17;2.50;;;5.00;99.90;;;4.05;100.00;101373.00;5035961;28;20260;-72
2023/12/27 01:03:48;;;;;;;11.17;2.20;;;5.00;99.90;;;4.09;100.00;101377.16;5035601;28;20281;-73
2023/12/27 01:06:16;;;;;;;8.83;2.27;;;5.00;99.90;;;4.06;100.00;101383.50;5035682;28;20269;-73
2023/12/27 01:08:44;;;;;;;15.77;3.40;;;5.00;99.90;;;4.02;100.00;101384.66;5034417;28;20234;-73
2023/12/27 01:11:14;;;;;;;11.83;2.53;;;5.00;99.90;;;3.98;100.00;101387.63;5035509;28;20289;-73
2023/12/27 01:13:43;;;;;;;15.33;2.73;;;4.90;99.90;;;3.97;100.00;101402.66;5035435;28;20304;-74
2023/12/27 01:16:11;;;;;;;9.53;2.27;;;4.90;99.90;;;4.00;100.00;101409.56;5035093;28;20695;-74
2023/12/27 01:18:39;;;;;;;11.20;2.40;;;4.90;99.90;;;4.05;100.00;101407.44;5034932;28;20676;-73
2023/12/27 01:21:07;;;;;;;6.93;2.00;;;5.00;99.90;;;4.05;100.00;101413.59;5035306;28;20229;-74
2023/12/27 01:23:35;;;;;;;11.83;2.33;;;5.00;99.90;;;3.99;100.00;101418.47;5035271;28;20206;-74
2023/12/27 01:26:04;;;;;;;11.97;2.40;;;4.90;99.90;;;3.88;100.00;101415.66;5034988;28;20249;-74
2023/12/27 01:28:33;;;;;;;8.33;2.50;;;4.70;99.90;;;3.86;100.00;101407.00;5035161;28;20309;-73
2023/12/27 01:31:03;;;;;;;10.30;2.30;;;4.80;99.90;;;3.87;100.00;101422.75;5035207;28;20231;-73
2023/12/27 01:33:31;;;;;;;10.27;2.43;;;4.80;99.90;;;3.86;100.00;101423.72;5034969;28;20237;-73
2023/12/27 01:36:06;;;;;;;11.47;2.60;;;4.80;99.90;;;3.91;100.00;101428.72;5034694;28;20211;-73
2023/12/27 01:38:34;;;;;;;15.20;2.70;;;4.80;99.90;;;3.94;100.00;101431.16;5034956;28;20296;-72
2023/12/27 01:41:02;;;;;;;8.93;1.93;;;4.90;99.90;;;3.91;100.00;101431.34;5035132;28;20301;-73
2023/12/27 01:43:30;;;;;;;13.43;2.73;;;4.80;99.90;;;3.88;100.00;101423.63;5034860;28;20293;-74
2023/12/27 01:46:00;;;;;;;10.10;2.40;;;4.80;99.90;;;3.87;100.00;101432.53;5034686;28;20631;-73
2023/12/27 01:48:28;;;;;;;10.20;2.20;;;5.00;99.90;;;3.90;100.00;101432.31;5035016;28;20760;-74
2023/12/27 01:50:58;;;;;;;7.50;2.40;;;4.80;99.90;;;3.93;100.00;101438.28;5034405;28;20218;-74
2023/12/27 01:53:26;;;;;;;11.37;2.77;;;4.80;99.90;;;3.92;100.00;101435.72;5034648;28;20290;-73
2023/12/27 01:55:56;;;;;;;9.23;2.67;;;4.90;99.90;;;3.83;100.00;101437.19;5034872;28;20211;-74
2023/12/27 01:58:25;;;;;;;9.87;2.87;;;4.70;99.90;;;3.78;100.00;101439.28;5034342;28;20708;-74
2023/12/27 02:00:56;;;;;;;10.10;2.40;;;4.70;99.90;;;3.74;100.00;101442.19;5034547;28;20293;-74
2023/12/27 02:03:26;;;;;;;11.80;2.53;;;4.60;99.90;;;3.60;100.00;101451.03;5034452;28;20233;-73
2023/12/27 02:05:57;;;;;;;11.97;3.00;;;4.50;99.90;;;3.60;100.00;101445.75;5034444;28;20306;-74
2023/12/27 02:08:27;;;;;;;7.53;2.33;;;4.50;99.90;;;3.58;100.00;101437.06;5034424;28;20280;-73
2023/12/27 02:10:56;;;;;;;13.00;2.83;;;4.50;99.90;;;3.45;100.00;101431.72;5034422;28;20207;-74
2023/12/27 02:13:24;;;;;;;9.47;2.43;;;4.40;99.90;;;3.42;100.00;101436.34;5034590;28;20242;-74
2023/12/27 02:15:53;;;;;;;13.20;2.33;;;4.40;99.90;;;3.39;100.00;101432.09;5034171;28;20314;-74
2023/12/27 02:18:22;;;;;;;12.10;2.80;;;4.40;99.90;;;3.47;100.00;101428.94;5034216;28;20266;-73
2023/12/27 02:20:53;;;;;;;12.03;2.77;;;4.40;99.90;;;3.42;100.00;101434.56;5033944;28;20214;-73
2023/12/27 02:23:26;;;;;;;9.33;2.50;;;4.40;99.90;;;3.39;100.00;101431.25;5033892;28;20213;-73
2023/12/27 02:25:57;;;;;;;11.13;2.73;;;4.30;99.90;;;3.38;100.00;101427.75;5034180;28;20285;-73
2023/12/27 02:28:26;;;;;;;11.03;2.47;;;4.40;99.90;;;3.32;100.00;101425.47;5034080;28;20227;-73
2023/12/27 02:30:54;;;;;;;9.00;2.70;;;4.30;99.90;;;3.33;100.00;101418.41;5034014;28;20203;-73
2023/12/27 02:33:23;;;;;;;13.40;2.73;;;4.30;99.90;;;3.29;100.00;101411.63;5034054;28;20202;-73
2023/12/27 02:35:51;;;;;;;8.90;2.47;;;4.30;99.90;;;3.23;100.00;101407.53;5033957;28;20241;-73
2023/12/27 02:38:19;;;;;;;9.07;2.47;;;4.30;99.90;;;3.21;100.00;101413.91;5034007;28;20317;-70
2023/12/27 02:40:47;;;;;;;14.97;3.20;;;4.20;99.90;;;3.17;100.00;101409.72;5033660;28;20710;-70
2023/12/27 02:43:17;;;;;;;16.57;2.97;;;4.20;99.90;;;3.21;100.00;101411.25;5033904;28;20289;-70
2023/12/27 02:45:45;;;;;;;17.60;3.10;;;4.30;99.90;;;3.16;100.00;101410.66;5033884;28;20302;-70
2023/12/27 02:48:13;;;;;;;9.97;2.40;;;4.10;99.90;;;3.08;100.00;101416.47;5033911;28;20632;-70
2023/12/27 02:50:44;;;;;;;11.97;2.10;;;4.10;99.90;;;3.12;100.00;101417.13;5033389;28;20218;-70
2023/12/27 02:53:12;;;;;;;12.10;2.73;;;4.10;99.90;;;3.14;100.00;101410.78;5033390;28;20217;-70
2023/12/27 02:55:40;;;;;;;10.03;2.50;;;4.10;99.90;;;3.14;100.00;101409.94;5033614;28;20618;-70
2023/12/27 02:58:08;;;;;;;8.27;2.43;;;4.10;99.90;;;3.06;100.00;101407.75;5033714;28;20310;-70
2023/12/27 03:00:38;;;;;;;10.63;2.50;;;4.00;99.90;;;3.13;100.00;101402.94;5033570;28;20256;-70
2023/12/27 03:03:06;;;;;;;11.77;2.20;;;4.10;99.90;;;3.16;100.00;101406.22;5033637;28;20213;-70
2023/12/27 03:05:34;;;;;;;10.57;2.20;;;4.20;99.90;;;3.14;100.00;101413.44;5033510;28;20207;-70
2023/12/27 03:08:03;;;;;;;8.67;2.50;;;4.10;99.90;;;3.10;100.00;101406.63;5033482;28;20262;-70
2023/12/27 03:10:31;;;;;;;10.27;2.70;;;4.00;99.90;;;3.08;100.00;101406.72;5033688;28;20429;-70
2023/12/27 03:12:59;;;;;;;10.60;3.07;;;4.00;99.90;;;3.11;100.00;101413.63;5033147;28;20681;-70
2023/12/27 03:15:27;;;;;;;10.47;2.33;;;4.10;99.90;;;3.08;100.00;101410.31;5033259;28;20226;-70
2023/12/27 03:17:57;;;;;;;10.63;1.97;;;4.00;99.90;;;3.07;100.00;101412.13;5033125;28;20222;-70
2023/12/27 03:20:25;;;;;;;10.67;2.40;;;4.00;99.90;;;3.02;100.00;101400.97;5033409;28;20293;-70
2023/12/27 03:22:53;;;;;;;7.33;2.13;;;3.90;99.90;;;3.01;100.00;101397.47;5033401;28;20237;-70
2023/12/27 03:25:22;;;;;;;7.00;2.30;;;4.00;99.90;;;2.95;100.00;101395.19;5033346;28;20213;-70
2023/12/27 03:27:50;;;;;;;13.30;3.10;;;3.90;99.90;;;2.95;100.00;101403.13;5033227;28;20227;-70
2023/12/27 03:30:18;;;;;;;7.90;2.00;;;3.90;99.90;;;3.03;100.00;101403.53;5032987;28;20210;-70
2023/12/27 03:32:46;;;;;;;14.03;2.40;;;4.00;99.90;;;3.06;100.00;101397.19;5037501;28;20306;-70
2023/12/27 03:35:16;;;;;;;11.73;2.60;;;4.10;99.90;;;3.06;100.00;101399.81;5037230;28;20226;-70
2023/12/27 03:37:45;;;;;;;7.20;2.10;;;4.00;99.90;;;3.10;100.00;101396.03;5037165;28;20253;-70
2023/12/27 03:40:13;;;;;;;10.87;2.43;;;4.10;99.90;;;3.11;100.00;101400.41;5037172;28;20260;-70
2023/12/27 03:42:41;;;;;;;9.97;2.53;;;4.00;99.90;;;3.11;100.00;101399.53;5037198;28;20293;-70
2023/12/27 03:45:10;;;;;;;8.37;1.97;;;4.10;99.90;;;3.11;100.00;101403.03;5037072;28;20198;-70
2023/12/27 03:47:38;;;;;;;6.70;2.03;;;4.00;99.90;;;3.13;100.00;101406.44;5036983;28;20222;-70
2023/12/27 03:50:07;;;;;;;8.30;2.10;;;4.10;99.90;;;3.13;100.00;101403.78;5036807;28;20225;-70
2023/12/27 03:52:37;;;;;;;11.17;2.60;;;4.10;99.90;;;3.13;100.00;101409.06;5036981;28;20202;-70
2023/12/27 03:55:06;;;;;;;11.13;2.30;;;4.20;99.90;;;3.14;100.00;101408.13;5036946;28;20276;-70
2023/12/27 03:57:34;;;;;;;10.03;2.93;;;4.10;99.90;;;3.12;100.00;101399.44;5036545;28;20227;-70
2023/12/27 04:00:04;;;;;;;10.53;3.40;;;4.10;99.90;;;3.06;100.00;101397.19;5036892;28;20207;-70
2023/12/27 04:02:32;;;;;;;15.00;3.93;;;4.00;99.90;;;2.98;100.00;101404.72;5036861;28;20214;-70
2023/12/27 04:05:00;;;;;;;12.73;3.37;;;4.10;99.90;;;2.92;100.00;101398.03;5036844;28;20214;-70
2023/12/27 04:07:30;;;;;;;14.50;4.10;;;3.90;99.90;;;2.90;100.00;101405.25;5036381;28;20231;-70
2023/12/27 04:09:59;;;;;;;13.70;3.30;;;3.90;99.90;;;2.88;100.00;101401.81;5036439;28;20217;-70
2023/12/27 04:12:27;;;;;;;12.77;3.80;;;3.90;99.90;;;2.84;100.00;101402.94;5036619;28;20211;-70
2023/12/27 04:14:56;;;;;;;13.77;4.00;;;3.80;99.90;;;2.80;100.00;101390.03;5036525;28;20231;-70
2023/12/27 04:17:25;;;;;;;12.23;3.27;;;3.70;99.90;;;2.74;100.00;101398.34;5036594;28;20211;-70
2023/12/27 04:19:54;;;;;;;7.00;2.80;;;3.70;99.90;;;2.78;100.00;101402.47;5036436;28;20202;-70
2023/12/27 04:22:22;;;;;;;8.03;2.60;;;3.80;99.90;;;2.78;100.00;101397.19;5036092;28;20249;-70
2023/12/27 04:24:50;;;;;;;11.17;2.53;;;3.90;99.90;;;2.76;100.00;101404.38;5036598;28;20214;-70
2023/12/27 04:27:20;;;;;;;11.67;2.73;;;3.70;99.90;;;2.79;100.00;101399.75;5036276;28;20687;-70
2023/12/27 04:29:48;;;;;;;9.83;2.37;;;3.90;99.90;;;2.79;100.00;101404.19;5036398;28;20264;-70
2023/12/27 04:32:16;;;;;;;7.07;2.27;;;3.70;99.90;;;2.86;100.00;101410.81;5036179;28;20305;-70
2023/12/27 04:34:45;;;;;;;7.57;2.53;;;3.90;99.90;;;2.84;100.00;101412.69;5036121;28;20608;-70
2023/12/27 04:37:13;;;;;;;8.77;2.30;;;3.80;99.90;;;2.77;100.00;101401.66;5036032;28;20242;-70
2023/12/27 04:39:41;;;;;;;11.83;3.07;;;3.70;99.90;;;2.70;100.00;101400.34;5036195;28;20207;-70
2023/12/27 04:42:09;;;;;;;8.47;2.27;;;3.60;99.90;;;2.73;100.00;101399.28;5035651;28;20575;-70
2023/12/27 04:44:40;;;;;;;7.70;2.37;;;3.60;99.90;;;2.75;100.00;101405.31;5035775;28;20206;-70
2023/12/27 04:47:08;;;;;;;5.53;2.20;;;3.80;99.90;;;2.70;100.00;101405.63;5035965;28;20242;-70
2023/12/27 04:49:36;;;;;;;5.03;1.93;;;3.70;99.90;;;2.66;100.00;101408.53;5035922;28;20219;-70
2023/12/27 04:52:06;;;;;;;6.90;2.20;;;3.60;99.90;;;2.72;100.00;101413.44;5035881;28;20234;-70
2023/12/27 04:54:34;;;;;;;5.73;2.10;;;3.70;99.90;;;2.74;100.00;101427.44;5035495;28;20724;-70
2023/12/27 04:57:02;;;;;;;6.93;1.90;;;3.70;99.90;;;2.71;100.00;101427.59;5035716;28;20292;-70
2023/12/27 04:59:30;;;;;;;8.73;2.57;;;3.70;99.90;;;2.67;100.00;101431.41;5035434;28;20595;-70
2023/12/27 05:02:00;;;;;;;4.80;2.13;;;3.60;99.90;;;2.63;100.00;101430.72;5035374;28;20563;-73
2023/12/27 05:04:28;;;;;;;6.50;2.40;;;3.60;99.90;;;2.61;100.00;101427.31;5035738;28;20234;-74
2023/12/27 05:06:56;;;;;;;10.17;2.33;;;3.50;99.90;;;2.57;100.00;101430.25;5035401;28;20735;-74
2023/12/27 05:09:24;;;;;;;10.63;2.30;;;3.60;99.90;;;2.57;100.00;101430.25;5035511;28;20319;-74
2023/12/27 05:11:52;;;;;;;10.10;2.57;;;3.40;99.90;;;2.54;100.00;101426.84;5035526;28;20206;-74
2023/12/27 05:14:20;;;;;;;8.07;2.37;;;3.40;99.90;;;2.52;100.00;101428.72;5035735;28;20297;-74
2023/12/27 05:16:50;;;;;;;8.37;2.33;;;3.40;99.90;;;2.54;100.00;101432.13;5035058;28;20222;-74
2023/12/27 05:19:20;;;;;;;6.83;2.20;;;3.40;99.90;;;2.53;100.00;101440.16;5035355;28;20313;-74
2023/12/27 05:21:48;;;;;;;8.97;2.40;;;3.40;99.90;;;2.50;100.00;101445.63;5035061;28;20625;-73
2023/12/27 05:24:16;;;;;;;5.97;2.50;;;3.40;99.90;;;2.49;100.00;101444.78;5035312;28;20213;-74
2023/12/27 05:26:44;;;;;;;10.77;2.20;;;3.30;99.90;;;2.46;100.00;101438.81;5035394;28;20213;-74
2023/12/27 05:29:12;;;;;;;7.10;2.30;;;3.30;99.90;;;2.45;100.00;101443.25;5034943;28;20736;-74
2023/12/27 05:31:41;;;;;;;7.10;2.23;;;3.30;99.90;;;2.45;100.00;101437.97;5035183;28;20238;-73
2023/12/27 05:34:09;;;;;;;8.43;2.40;;;3.30;99.90;;;2.46;100.00;101442.31;5035110;28;20260;-74
2023/12/27 05:36:38;;;;;;;7.20;2.40;;;3.30;99.90;;;2.46;100.00;101439.69;5035053;28;20227;-74
2023/12/27 05:39:07;;;;;;;8.87;2.50;;;3.40;99.90;;;2.46;100.00;101426.47;5035122;28;20309;-73
2023/12/27 05:41:35;;;;;;;13.97;2.77;;;3.30;99.90;;;2.47;100.00;101430.78;5034787;28;20627;-74
2023/12/27 05:44:03;;;;;;;7.83;2.00;;;3.30;99.90;;;2.47;100.00;101436.06;5035166;28;20207;-74
2023/12/27 05:46:35;;;;;;;8.40;2.83;;;3.40;99.90;;;2.48;100.00;101432.50;5034614;28;20730;-75
2023/12/27 05:49:03;;;;;;;15.43;2.80;;;3.40;99.90;;;2.46;100.00;101423.81;5034531;28;20691;-74
2023/12/27 05:51:33;;;;;;;7.63;2.30;;;3.40;99.90;;;2.48;100.00;101432.50;5034699;28;20256;-74
2023/12/27 05:54:03;;;;;;;7.73;2.17;;;3.40;99.90;;;2.50;100.00;101437.69;5034272;28;20298;-74
2023/12/27 05:56:32;;;;;;;12.00;2.50;;;3.40;99.90;;;2.51;100.00;101442.88;5034931;28;20273;-74
2023/12/27 05:59:00;;;;;;;9.00;2.60;;;3.40;99.90;;;2.50;100.00;101427.94;5034265;28;20807;-74
2023/12/27 06:01:28;;;;;;;7.93;2.17;;;3.40;99.90;;;2.50;100.00;101430.59;5034582;28;20284;-74
2023/12/27 06:03:56;;;;;;;14.07;2.97;;;3.40;99.90;;;2.50;100.00;101430.59;5034579;28;20245;-74
2023/12/27 06:06:25;;;;;;;10.00;2.10;;;3.40;99.90;;;2.52;100.00;101422.59;5034547;28;20257;-74
2023/12/27 06:08:53;;;;;;;7.47;2.30;;;3.50;99.90;;;2.53;100.00;101422.47;5034392;28;20227;-74
2023/12/27 06:11:22;;;;;;;10.77;2.60;;;3.50;99.90;;;2.50;100.00;101424.47;5034442;28;20203;-74
2023/12/27 06:13:50;;;;;;;8.97;2.43;;;3.40;99.90;;;2.47;100.00;101417.56;5034383;28;20298;-74
2023/12/27 06:16:19;;;;;;;10.07;2.40;;;3.40;99.90;;;2.45;100.00;101422.09;5034348;28;20686;-74
2023/12/27 06:18:47;;;;;;;10.23;2.40;;;3.30;99.90;;;2.43;100.00;101418.69;5033891;28;20674;-74
2023/12/27 06:21:15;;;;;;;10.53;2.33;;;3.30;99.90;;;2.43;100.00;101423.16;5033925;28;20210;-74
2023/12/27 06:23:43;;;;;;;11.23;3.17;;;3.30;99.90;;;2.43;100.00;101421.34;5034187;28;20286;-74
2023/12/27 06:26:11;;;;;;;9.43;2.50;;;3.40;99.90;;;2.44;100.00;101420.41;5034268;28;20229;-74
2023/12/27 06:28:42;;;;;;;11.43;2.83;;;3.30;99.90;;;2.43;100.00;101423.16;5034108;28;20649;-75
2023/12/27 06:31:10;;;;;;;12.03;2.80;;;3.30;99.90;;;2.43;100.00;101434.53;5033779;28;20564;-74
2023/12/27 06:33:39;;;;;;;6.60;2.50;;;3.30;99.90;;;2.44;100.00;101422.19;5034158;28;20237;-74
2023/12/27 06:36:08;;;;;;;8.93;2.30;;;3.40;99.90;;;2.41;100.00;101428.50;5033572;28;20699;-74
2023/12/27 06:38:36;;;;;;;8.80;2.60;;;3.30;99.90;;;2.43;100.00;101415.22;5033541;28;20648;-74
2023/12/27 06:41:04;;;;;;;13.57;3.03;;;3.40;99.90;;;2.39;100.00;101422.47;5033912;28;20202;-74
2023/12/27 06:43:32;;;;;;;6.73;2.93;;;3.30;99.90;;;2.36;100.00;101427.09;5033922;28;20285;-74
2023/12/27 06:46:03;;;;;;;9.37;2.70;;;3.20;99.90;;;2.37;100.00;101424.34;5034056;28;20209;-74
2023/12/27 06:48:31;;;;;;;7.20;2.53;;;3.20;99.90;;;2.35;100.00;101422.75;5033682;28;20223;-74
2023/12/27 06:50:59;;;;;;;7.43;2.70;;;3.20;99.90;;;2.31;100.00;101422.06;5033374;28;20221;-74
2023/12/27 06:53:27;;;;;;;6.40;2.40;;;3.20;99.90;;;2.32;100.00;101415.00;5033964;28;20214;-73
2023/12/27 06:55:56;;;;;;;8.87;2.63;;;3.20;99.90;;;2.30;100.00;101416.88;5033732;28;20303;-74
2023/12/27 06:58:24;;;;;;;9.27;2.90;;;3.20;99.90;;;2.28;100.00;101414.34;5033229;28;20675;-74
2023/12/27 07:00:52;;;;;;;7.20;2.53;;;3.20;99.90;;;2.26;100.00;101416.19;5033949;28;20293;-74
2023/12/27 07:03:22;;;;;;;8.23;2.30;;;3.20;99.90;;;2.25;100.00;101421.59;5033935;28;20214;-74
2023/12/27 07:05:50;;;;;;;8.93;2.43;;;3.10;99.90;;;2.24;100.00;101418.09;5032741;28;20207;-74
2023/12/27 07:08:18;;;;;;;7.33;2.60;;;3.10;99.90;;;2.21;100.00;101413.00;5033275;28;20704;-75
2023/12/27 07:10:46;;;;;;;6.87;2.10;;;3.10;99.90;;;2.20;100.00;101415.72;5033322;28;20215;-74
2023/12/27 07:13:15;;;;;;;8.83;2.87;;;3.10;99.90;;;2.19;100.00;101414.91;5033527;28;20241;-74
2023/12/27 07:15:43;;;;;;;8.63;2.33;;;3.10;99.90;;;2.20;100.00;101407.78;5033604;28;20234;-74
2023/12/27 07:18:11;;;;;;;8.23;2.63;;;3.10;99.90;;;2.21;100.00;101423.56;5033300;28;20319;-74
2023/12/27 07:20:41;;;;;;;7.40;2.20;;;3.10;99.90;;;2.21;100.00;101423.56;5033035;28;20699;-74
2023/12/27 07:23:10;;;;;;;8.63;2.60;;;3.10;99.90;;;2.21;100.00;101428.00;5033166;28;20213;-74
2023/12/27 07:25:38;;;;;;;8.80;2.30;;;3.10;99.90;;;2.17;100.00;101432.59;5033372;28;20206;-73
2023/12/27 07:28:07;;;;;;;9.10;2.60;;;3.10;99.90;;;2.16;100.00;101436.19;5033414;28;20314;-74
2023/12/27 07:30:35;;;;;;;12.20;2.73;;;3.10;99.90;;;2.15;100.00;101434.50;5033407;28;20202;-74
2023/12/27 07:33:04;;;;;;;9.77;2.57;;;3.10;99.90;;;2.14;100.00;101427.50;5033442;28;20664;-74
2023/12/27 07:35:32;;;;;;;6.27;2.20;;;3.00;99.90;;;2.15;100.00;101426.56;5033281;28;20205;-74
2023/12/27 07:38:02;;;;;;;12.17;2.63;;;3.10;99.90;;;2.15;100.00;101423.94;5033418;28;20235;-74
2023/12/27 07:40:31;;;;;;;9.87;2.70;;;3.10;99.90;;;2.15;100.00;101431.84;5033349;28;20241;-74
2023/12/27 07:42:59;;;;;;;7.63;2.60;;;3.10;99.90;;;2.14;100.00;101432.78;5033477;28;20250;-75
2023/12/27 07:45:27;;;;;;;11.33;2.90;;;3.10;99.90;;;2.13;100.00;101431.06;5032994;28;20711;-74
2023/12/27 07:47:55;;;;;;;10.37;3.03;;;3.00;99.90;;;2.14;100.00;101431.94;5033540;28;20250;-74
2023/12/27 07:50:24;;;;;;;8.63;2.50;;;3.00;99.90;;;2.13;100.00;101420.50;5032893;28;20218;-74
2023/12/27 07:52:52;;;;;;;6.13;2.50;;;3.00;99.90;;;2.13;100.00;101425.78;5033164;28;20246;-74
2023/12/27 07:55:22;;;;;;;8.50;3.17;;;3.10;99.90;;;2.13;100.00;101424.94;5033318;28;20203;-74
2023/12/27 07:57:50;;;;;;;7.27;4.00;;;3.10;99.90;;;2.14;100.00;101426.66;5032950;28;20322;-75
2023/12/27 08:00:18;;;;;;;10.93;3.03;;;3.10;99.90;;;2.15;100.00;101423.94;5033101;28;20298;-75
2023/12/27 08:02:47;;;;;;;12.37;3.70;;;3.10;99.90;;;2.15;100.00;101429.22;5033085;28;20269;-74
2023/12/27 08:05:15;;;;;;;11.77;4.43;;;3.10;99.90;;;2.14;100.00;101421.38;5032722;28;20211;-74
2023/12/27 08:07:44;;;;;;;8.77;3.73;;;3.10;99.90;;;2.13;100.00;101423.16;5032804;28;20266;-74
2023/12/27 08:10:12;;;;;;;11.20;3.80;;;3.10;99.90;;;2.13;100.00;101424.94;5033124;28;20297;-75
2023/12/27 08:12:41;;;;;;;16.63;4.33;;;3.00;99.90;;;2.15;100.00;101434.50;5033023;28;20245;-71
2023/12/27 08:15:11;;;;;;;13.00;3.87;;;3.10;99.90;;;2.16;100.00;101430.91;5032710;28;20709;-71
2023/12/27 08:17:40;;;;;;;9.63;3.57;;;3.10;99.90;;;2.15;100.00;101428.34;5035432;28;20288;-71
2023/12/27 08:20:10;;;;;;;11.03;3.80;;;3.10;99.90;;;2.16;100.00;101436.19;5036515;28;20210;-71
2023/12/27 08:22:38;;;;;;;8.47;3.17;;;3.10;99.90;;;2.16;100.00;101438.81;5036813;28;20207;-71
2023/12/27 08:25:12;;;;;;;11.90;3.20;;;3.10;99.90;;;2.17;100.00;101432.59;5036049;28;20207;-71
2023/12/27 08:27:42;;;;;;;10.63;4.00;;;3.10;99.90;;;2.18;100.00;101428.19;5036527;28;20277;-70
2023/12/27 08:30:11;;;;;;;14.83;4.27;;;3.10;99.90;;;2.18;100.00;101421.09;5036305;28;20256;-71
2023/12/27 08:32:39;;;;;;;9.77;3.70;;;3.10;99.90;;;2.21;100.00;101425.34;5036306;28;20211;-71
2023/12/27 08:35:08;;;;;;;12.80;4.03;;;3.20;99.90;;;2.23;100.00;101429.59;5036334;28;20252;-71
2023/12/27 08:37:36;;;;;;;10.87;3.53;;;3.20;99.90;;;2.23;100.00;101428.75;5036061;28;20334;-71
2023/12/27 08:40:07;;;;;;;16.23;4.30;;;3.20;99.90;;;2.24;100.00;101417.25;5036372;28;20213;-71
2023/12/27 08:42:35;;;;;;;11.30;5.00;;;3.20;99.90;;;2.25;100.00;101409.25;5037466;28;20213;-71
2023/12/27 08:45:06;;;;;;;16.93;5.30;;;3.20;99.90;;;2.26;100.00;101388.97;5035798;28;20734;-71
2023/12/27 08:47:34;;;;;;;8.47;4.17;;;3.20;99.90;;;2.28;100.00;101400.28;5036104;28;20219;-71
2023/12/27 08:50:02;;;;;;;14.03;5.33;;;3.20;99.90;;;2.28;100.00;101384.41;5035652;28;20222;-70
2023/12/27 08:52:34;;;;;;;12.10;5.57;;;3.30;99.90;;;2.28;100.00;101377.34;5036343;28;20201;-70
2023/12/27 08:55:05;;;;;;;11.07;4.30;;;3.30;99.90;;;2.30;100.00;101379.88;5035857;28;20242;-70
2023/12/27 08:57:33;;;;;;;15.13;7.30;;;3.20;99.90;;;2.28;100.00;101374.72;5035378;28;20765;-70
2023/12/27 09:00:02;;;;;;;20.43;8.13;;;3.30;99.90;;;2.29;100.00;101379.06;5036012;28;20202;-70
2023/12/27 09:02:31;;;;;;;15.90;7.57;;;3.20;99.90;;;2.30;100.00;101370.16;5035431;28;20615;-68
2023/12/27 09:05:00;;;;;;;13.37;6.93;;;3.30;99.90;;;2.31;100.00;101382.44;5035782;28;20203;-68
2023/12/27 09:07:28;;;;;;;11.90;5.40;;;3.30;99.90;;;2.29;100.00;101388.78;5035675;28;20226;-68
2023/12/27 09:09:56;;;;;;;11.30;4.27;;;3.30;99.90;;;2.31;100.00;101371.88;5035594;28;20242;-68
2023/12/27 09:12:26;;;;;;;8.60;4.47;;;3.30;99.90;;;2.32;100.00;101378.88;5036314;28;20207;-68
2023/12/27 09:14:55;;;;;;;10.63;4.37;;;3.30;99.90;;;2.33;100.00;101372.63;5035175;28;20641;-68
2023/12/27 09:17:24;;;;;;;15.73;5.17;;;3.30;99.90;;;2.35;100.00;101370.75;5035284;28;20211;-68
2023/12/27 09:19:54;;;;;;;13.43;4.30;;;3.30;99.90;;;2.36;100.00;101363.69;5035412;28;20257;-68
2023/12/27 09:22:22;;;;;;;11.03;4.10;;;3.40;99.90;;;2.37;100.00;101352.16;5035511;28;20214;-68
2023/12/27 09:24:50;;;;;;;13.00;3.97;;;3.40;99.90;;;2.39;100.00;101347.63;5035294;28;20261;-68
2023/12/27 09:27:18;;;;;;;8.73;3.33;;;3.40;99.90;;;2.39;100.00;101356.41;5035435;28;20215;-70
2023/12/27 09:29:47;;;;;;;9.00;3.63;;;3.40;99.90;;;2.41;100.00;101357.16;5034347;28;20309;-69
2023/12/27 09:32:15;;;;;;;7.50;3.80;;;3.40;99.90;;;2.41;100.00;101349.22;5034693;28;20238;-71
2023/12/27 09:34:43;;;;;;;13.23;5.90;;;3.50;99.90;;;2.43;100.00;101344.69;5035073;28;20207;-71
2023/12/27 09:37:13;;;;;;;11.13;4.37;;;3.50;99.90;;;2.45;100.00;101352.53;5035051;28;20210;-71
2023/12/27 09:39:41;;;;;;;9.67;4.40;;;3.50;99.90;;;2.46;100.00;101347.19;5034962;28;20235;-71
2023/12/27 09:42:09;;;;;;;10.27;3.80;;;3.50;99.90;;;2.47;100.00;101345.34;5035059;28;20234;-71
2023/12/27 09:44:41;;;;;;;8.43;3.47;;;3.50;99.90;;;2.49;100.00;101344.34;5034973;28;20217;-71
2023/12/27 09:47:13;;;;;;;8.33;3.23;;;3.50;99.90;;;2.51;100.00;101342.44;5034850;28;20226;-71
2023/12/27 09:49:42;;;;;;;9.13;3.57;;;3.60;99.90;;;2.52;100.00;101338.88;5034851;28;20246;-71
2023/12/27 09:52:10;;;;;;;12.03;3.10;;;3.60;99.90;;;2.54;100.00;101331.69;5034762;28;20206;-71
2023/12/27 09:54:40;;;;;;;9.50;3.03;;;3.60;99.90;;;2.58;100.00;101334.13;5034809;28;20214;-71
2023/12/27 09:57:08;;;;;;;11.50;2.90;;;3.60;99.90;;;2.62;100.00;101327.72;5034360;28;20735;-71
2023/12/27 09:59:41;;;;;;;8.20;2.80;;;3.60;99.90;;;2.64;100.00;101320.56;5035264;28;20227;-71
2023/12/27 10:02:18;;;;;;;8.53;2.80;;;3.70;99.90;;;2.66;100.00;101330.06;5034313;28;20195;-71
2023/12/27 10:05:02;;;;;;;4.77;2.43;;;3.70;99.90;;;2.69;100.00;101323.75;5034628;28;20191;-71
2023/12/27 10:07:32;;;;;;;7.93;3.07;;;3.80;99.90;;;2.72;100.00;101312.97;5034174;28;20640;-71
2023/12/27 10:10:04;;;;;;;8.83;2.47;;;3.80;99.90;;;2.75;100.00;101308.34;5034474;28;20199;-71
2023/12/27 10:12:50;;;;;;;8.63;2.80;;;3.80;99.90;;;2.80;100.00;101305.41;5034484;28;20202;-71
2023/12/27 10:15:18;;;;;;;6.40;2.70;;;3.90;99.90;;;2.82;100.00;101304.38;5034426;28;20231;-71
2023/12/27 10:17:46;;;;;;;15.30;3.60;;;3.90;99.90;;;2.85;100.00;101292.72;5034276;28;20262;-71
2023/12/27 10:20:32;;;;;;;9.17;3.10;;;3.90;99.90;;;2.88;100.00;101281.97;5034246;28;20231;-71
2023/12/27 10:23:01;;;;;;;6.47;2.63;;;4.00;99.90;;;2.90;100.00;101288.03;5034061;28;20637;-71